sensor_id;sensor_type;location;lat;lon;timestamp;P1;durP1;ratioP1;P2;durP2;ratioP2
33826;SDS011;20128;45.582;5.298;2022-09-09T00:04:00;4.35;;;1.00;;
33826;SDS011;20128;45.582;5.298;2022-09-09T00:09:25;5.13;;;1.05;;
33826;SDS011;20128;45.582;5.298;2022-09-09T00:12:04;5.00;;;1.15;;
33826;SDS011;20128;45.582;5.298;2022-09-09T00:22:54;3.80;;;0.80;;
33826;SDS011;20128;45.582;5.298;2022-09-09T00:28:17;2.35;;;0.93;;
33826;SDS011;20128;45.582;5.298;2022-09-09T00:30:51;2.97;;;0.80;;
33826;SDS011;20128;45.582;5.298;2022-09-09T00:33:19;3.65;;;0.77;;
33826;SDS011;20128;45.582;5.298;2022-09-09T00:35:49;3.90;;;0.93;;
33826;SDS011;20128;45.582;5.298;2022-09-09T00:38:36;3.03;;;0.68;;
33826;SDS011;20128;45.582;5.298;2022-09-09T00:46:59;1.75;;;0.93;;
33826;SDS011;20128;45.582;5.298;2022-09-09T00:50:00;6.80;;;0.82;;
33826;SDS011;20128;45.582;5.298;2022-09-09T00:52:36;7.15;;;0.95;;
33826;SDS011;20128;45.582;5.298;2022-09-09T00:57:58;6.50;;;1.75;;
33826;SDS011;20128;45.582;5.298;2022-09-09T01:00:29;3.97;;;0.82;;
33826;SDS011;20128;45.582;5.298;2022-09-09T01:05:45;5.72;;;0.75;;
33826;SDS011;20128;45.582;5.298;2022-09-09T01:11:20;1.42;;;0.70;;
33826;SDS011;20128;45.582;5.298;2022-09-09T01:13:49;7.32;;;0.80;;
33826;SDS011;20128;45.582;5.298;2022-09-09T01:16:24;6.68;;;1.00;;
33826;SDS011;20128;45.582;5.298;2022-09-09T01:18:51;6.05;;;0.90;;
33826;SDS011;20128;45.582;5.298;2022-09-09T01:26:45;6.05;;;0.90;;
33826;SDS011;20128;45.582;5.298;2022-09-09T01:29:13;9.55;;;1.15;;
33826;SDS011;20128;45.582;5.298;2022-09-09T01:32:02;6.60;;;0.88;;
33826;SDS011;20128;45.582;5.298;2022-09-09T01:34:31;4.72;;;1.20;;
33826;SDS011;20128;45.582;5.298;2022-09-09T01:37:02;4.68;;;0.95;;
33826;SDS011;20128;45.582;5.298;2022-09-09T01:39:31;7.38;;;0.75;;
33826;SDS011;20128;45.582;5.298;2022-09-09T01:41:59;2.88;;;1.00;;
33826;SDS011;20128;45.582;5.298;2022-09-09T01:44:25;6.93;;;1.00;;
33826;SDS011;20128;45.582;5.298;2022-09-09T01:46:52;4.88;;;0.88;;
33826;SDS011;20128;45.582;5.298;2022-09-09T02:05:18;5.65;;;0.88;;
33826;SDS011;20128;45.582;5.298;2022-09-09T02:07:49;2.20;;;0.80;;
33826;SDS011;20128;45.582;5.298;2022-09-09T02:10:39;6.53;;;0.77;;
33826;SDS011;20128;45.582;5.298;2022-09-09T02:13:12;8.90;;;0.70;;
33826;SDS011;20128;45.582;5.298;2022-09-09T02:15:50;7.95;;;1.00;;
33826;SDS011;20128;45.582;5.298;2022-09-09T02:18:24;3.97;;;0.80;;
33826;SDS011;20128;45.582;5.298;2022-09-09T02:20:56;2.85;;;0.60;;
33826;SDS011;20128;45.582;5.298;2022-09-09T02:23:23;3.58;;;0.70;;
33826;SDS011;20128;45.582;5.298;2022-09-09T02:25:49;1.95;;;0.80;;
33826;SDS011;20128;45.582;5.298;2022-09-09T02:28:18;1.85;;;0.52;;
33826;SDS011;20128;45.582;5.298;2022-09-09T02:30:46;5.50;;;0.65;;
33826;SDS011;20128;45.582;5.298;2022-09-09T02:33:19;4.22;;;0.63;;
33826;SDS011;20128;45.582;5.298;2022-09-09T02:35:48;1.60;;;1.00;;
33826;SDS011;20128;45.582;5.298;2022-09-09T02:38:16;6.97;;;0.70;;
33826;SDS011;20128;45.582;5.298;2022-09-09T02:40:45;4.43;;;0.60;;
33826;SDS011;20128;45.582;5.298;2022-09-09T02:43:10;4.57;;;0.80;;
33826;SDS011;20128;45.582;5.298;2022-09-09T02:45:39;7.57;;;1.08;;
33826;SDS011;20128;45.582;5.298;2022-09-09T02:48:17;2.05;;;0.65;;
33826;SDS011;20128;45.582;5.298;2022-09-09T02:51:08;5.18;;;1.05;;
33826;SDS011;20128;45.582;5.298;2022-09-09T02:53:43;2.55;;;0.82;;
33826;SDS011;20128;45.582;5.298;2022-09-09T02:56:20;4.55;;;0.65;;
33826;SDS011;20128;45.582;5.298;2022-09-09T02:58:48;8.55;;;2.05;;
33826;SDS011;20128;45.582;5.298;2022-09-09T03:01:14;7.75;;;1.00;;
33826;SDS011;20128;45.582;5.298;2022-09-09T03:03:40;5.03;;;0.52;;
33826;SDS011;20128;45.582;5.298;2022-09-09T03:06:07;3.38;;;0.65;;
33826;SDS011;20128;45.582;5.298;2022-09-09T03:08:33;3.85;;;0.77;;
33826;SDS011;20128;45.582;5.298;2022-09-09T03:10:59;5.03;;;1.00;;
33826;SDS011;20128;45.582;5.298;2022-09-09T03:13:26;8.20;;;1.10;;
33826;SDS011;20128;45.582;5.298;2022-09-09T03:15:52;3.72;;;0.75;;
33826;SDS011;20128;45.582;5.298;2022-09-09T03:18:17;2.10;;;0.70;;
33826;SDS011;20128;45.582;5.298;2022-09-09T03:20:43;1.20;;;0.57;;
33826;SDS011;20128;45.582;5.298;2022-09-09T03:23:11;4.38;;;0.85;;
33826;SDS011;20128;45.582;5.298;2022-09-09T03:25:38;3.70;;;0.68;;
33826;SDS011;20128;45.582;5.298;2022-09-09T03:28:04;6.85;;;1.20;;
33826;SDS011;20128;45.582;5.298;2022-09-09T03:30:32;8.88;;;0.82;;
33826;SDS011;20128;45.582;5.298;2022-09-09T03:32:58;4.22;;;0.77;;
33826;SDS011;20128;45.582;5.298;2022-09-09T03:35:24;9.13;;;1.65;;
33826;SDS011;20128;45.582;5.298;2022-09-09T03:37:50;7.75;;;0.90;;
33826;SDS011;20128;45.582;5.298;2022-09-09T03:40:15;3.67;;;1.00;;
33826;SDS011;20128;45.582;5.298;2022-09-09T03:42:41;8.57;;;1.20;;
33826;SDS011;20128;45.582;5.298;2022-09-09T03:45:07;4.57;;;0.85;;
33826;SDS011;20128;45.582;5.298;2022-09-09T03:47:35;3.40;;;0.82;;
33826;SDS011;20128;45.582;5.298;2022-09-09T03:50:01;9.70;;;0.68;;
33826;SDS011;20128;45.582;5.298;2022-09-09T03:52:27;6.72;;;0.90;;
33826;SDS011;20128;45.582;5.298;2022-09-09T03:54:53;2.75;;;0.60;;
33826;SDS011;20128;45.582;5.298;2022-09-09T03:57:19;2.70;;;0.63;;
33826;SDS011;20128;45.582;5.298;2022-09-09T03:59:45;4.32;;;0.70;;
33826;SDS011;20128;45.582;5.298;2022-09-09T04:02:11;6.18;;;1.00;;
33826;SDS011;20128;45.582;5.298;2022-09-09T04:04:37;3.45;;;0.90;;
33826;SDS011;20128;45.582;5.298;2022-09-09T04:07:02;5.53;;;1.02;;
33826;SDS011;20128;45.582;5.298;2022-09-09T04:09:31;6.32;;;0.93;;
33826;SDS011;20128;45.582;5.298;2022-09-09T04:11:57;3.33;;;1.08;;
33826;SDS011;20128;45.582;5.298;2022-09-09T04:14:23;4.22;;;0.82;;
33826;SDS011;20128;45.582;5.298;2022-09-09T04:16:53;5.40;;;1.23;;
33826;SDS011;20128;45.582;5.298;2022-09-09T04:19:20;3.58;;;0.93;;
33826;SDS011;20128;45.582;5.298;2022-09-09T04:21:46;7.55;;;0.70;;
33826;SDS011;20128;45.582;5.298;2022-09-09T04:24:15;2.33;;;0.80;;
33826;SDS011;20128;45.582;5.298;2022-09-09T04:26:41;2.00;;;0.57;;
33826;SDS011;20128;45.582;5.298;2022-09-09T04:29:07;6.03;;;0.80;;
33826;SDS011;20128;45.582;5.298;2022-09-09T04:31:35;1.90;;;0.82;;
33826;SDS011;20128;45.582;5.298;2022-09-09T04:34:01;2.22;;;0.70;;
33826;SDS011;20128;45.582;5.298;2022-09-09T04:36:30;10.15;;;1.00;;
33826;SDS011;20128;45.582;5.298;2022-09-09T04:38:57;7.32;;;0.90;;
33826;SDS011;20128;45.582;5.298;2022-09-09T04:41:22;4.93;;;0.85;;
33826;SDS011;20128;45.582;5.298;2022-09-09T04:43:48;8.55;;;1.30;;
33826;SDS011;20128;45.582;5.298;2022-09-09T04:46:15;5.13;;;1.23;;
33826;SDS011;20128;45.582;5.298;2022-09-09T04:48:43;3.55;;;1.10;;
33826;SDS011;20128;45.582;5.298;2022-09-09T04:51:11;3.65;;;1.42;;
33826;SDS011;20128;45.582;5.298;2022-09-09T04:53:38;5.57;;;1.30;;
33826;SDS011;20128;45.582;5.298;2022-09-09T04:56:08;4.38;;;0.90;;
33826;SDS011;20128;45.582;5.298;2022-09-09T04:58:39;3.08;;;0.98;;
33826;SDS011;20128;45.582;5.298;2022-09-09T05:01:14;9.00;;;1.25;;
33826;SDS011;20128;45.582;5.298;2022-09-09T05:03:44;6.03;;;0.90;;
33826;SDS011;20128;45.582;5.298;2022-09-09T05:06:11;7.43;;;1.10;;
33826;SDS011;20128;45.582;5.298;2022-09-09T05:08:44;9.95;;;1.40;;
33826;SDS011;20128;45.582;5.298;2022-09-09T05:11:29;4.90;;;1.30;;
33826;SDS011;20128;45.582;5.298;2022-09-09T05:13:55;4.95;;;1.25;;
33826;SDS011;20128;45.582;5.298;2022-09-09T05:16:22;8.35;;;1.33;;
33826;SDS011;20128;45.582;5.298;2022-09-09T05:18:48;8.48;;;1.80;;
33826;SDS011;20128;45.582;5.298;2022-09-09T05:21:16;15.18;;;1.20;;
33826;SDS011;20128;45.582;5.298;2022-09-09T05:23:42;9.20;;;1.33;;
33826;SDS011;20128;45.582;5.298;2022-09-09T05:26:11;8.48;;;1.50;;
33826;SDS011;20128;45.582;5.298;2022-09-09T05:28:39;5.40;;;0.70;;
33826;SDS011;20128;45.582;5.298;2022-09-09T05:31:05;3.05;;;0.98;;
33826;SDS011;20128;45.582;5.298;2022-09-09T05:33:33;7.82;;;1.13;;
33826;SDS011;20128;45.582;5.298;2022-09-09T05:36:01;13.38;;;1.38;;
33826;SDS011;20128;45.582;5.298;2022-09-09T05:38:32;4.65;;;0.93;;
33826;SDS011;20128;45.582;5.298;2022-09-09T05:40:59;9.30;;;1.50;;
33826;SDS011;20128;45.582;5.298;2022-09-09T05:43:26;7.57;;;1.20;;
33826;SDS011;20128;45.582;5.298;2022-09-09T05:45:59;9.98;;;1.50;;
33826;SDS011;20128;45.582;5.298;2022-09-09T05:48:33;8.95;;;1.25;;
33826;SDS011;20128;45.582;5.298;2022-09-09T05:51:07;8.95;;;1.40;;
33826;SDS011;20128;45.582;5.298;2022-09-09T05:53:38;4.07;;;1.52;;
33826;SDS011;20128;45.582;5.298;2022-09-09T05:56:04;5.82;;;1.80;;
33826;SDS011;20128;45.582;5.298;2022-09-09T05:58:35;5.60;;;1.52;;
33826;SDS011;20128;45.582;5.298;2022-09-09T06:01:09;6.25;;;1.23;;
33826;SDS011;20128;45.582;5.298;2022-09-09T06:03:35;14.20;;;1.43;;
33826;SDS011;20128;45.582;5.298;2022-09-09T06:06:05;9.10;;;1.48;;
33826;SDS011;20128;45.582;5.298;2022-09-09T06:08:36;10.95;;;1.70;;
33826;SDS011;20128;45.582;5.298;2022-09-09T06:11:04;10.02;;;1.60;;
33826;SDS011;20128;45.582;5.298;2022-09-09T06:13:31;13.68;;;1.73;;
33826;SDS011;20128;45.582;5.298;2022-09-09T06:15:57;9.35;;;1.63;;
33826;SDS011;20128;45.582;5.298;2022-09-09T06:18:24;10.65;;;1.88;;
33826;SDS011;20128;45.582;5.298;2022-09-09T06:20:57;10.52;;;1.60;;
33826;SDS011;20128;45.582;5.298;2022-09-09T06:23:29;6.50;;;1.90;;
33826;SDS011;20128;45.582;5.298;2022-09-09T06:26:06;8.48;;;2.63;;
33826;SDS011;20128;45.582;5.298;2022-09-09T06:28:35;6.55;;;1.67;;
33826;SDS011;20128;45.582;5.298;2022-09-09T06:31:02;5.53;;;1.70;;
33826;SDS011;20128;45.582;5.298;2022-09-09T06:33:36;11.52;;;1.85;;
33826;SDS011;20128;45.582;5.298;2022-09-09T06:36:06;6.57;;;2.00;;
33826;SDS011;20128;45.582;5.298;2022-09-09T06:38:36;9.77;;;1.88;;
33826;SDS011;20128;45.582;5.298;2022-09-09T06:41:02;9.65;;;1.60;;
33826;SDS011;20128;45.582;5.298;2022-09-09T06:43:27;6.22;;;1.73;;
33826;SDS011;20128;45.582;5.298;2022-09-09T06:45:57;7.70;;;1.75;;
33826;SDS011;20128;45.582;5.298;2022-09-09T06:48:25;9.45;;;1.85;;
33826;SDS011;20128;45.582;5.298;2022-09-09T06:51:15;5.25;;;1.75;;
33826;SDS011;20128;45.582;5.298;2022-09-09T06:53:41;9.52;;;1.67;;
33826;SDS011;20128;45.582;5.298;2022-09-09T06:58:39;14.98;;;1.95;;
33826;SDS011;20128;45.582;5.298;2022-09-09T07:01:12;7.70;;;1.33;;
33826;SDS011;20128;45.582;5.298;2022-09-09T07:03:40;5.15;;;1.35;;
33826;SDS011;20128;45.582;5.298;2022-09-09T07:06:13;6.45;;;1.38;;
33826;SDS011;20128;45.582;5.298;2022-09-09T07:08:41;9.68;;;1.65;;
33826;SDS011;20128;45.582;5.298;2022-09-09T07:11:08;9.85;;;1.75;;
33826;SDS011;20128;45.582;5.298;2022-09-09T07:13:34;7.68;;;1.67;;
33826;SDS011;20128;45.582;5.298;2022-09-09T07:16:06;6.50;;;1.70;;
33826;SDS011;20128;45.582;5.298;2022-09-09T07:18:33;19.33;;;3.07;;
33826;SDS011;20128;45.582;5.298;2022-09-09T07:21:00;10.43;;;2.38;;
33826;SDS011;20128;45.582;5.298;2022-09-09T07:23:27;9.35;;;1.83;;
33826;SDS011;20128;45.582;5.298;2022-09-09T07:25:53;4.55;;;1.27;;
33826;SDS011;20128;45.582;5.298;2022-09-09T07:28:19;14.52;;;1.63;;
33826;SDS011;20128;45.582;5.298;2022-09-09T07:30:59;5.30;;;1.88;;
33826;SDS011;20128;45.582;5.298;2022-09-09T07:33:28;9.68;;;1.48;;
33826;SDS011;20128;45.582;5.298;2022-09-09T07:36:05;9.77;;;1.20;;
33826;SDS011;20128;45.582;5.298;2022-09-09T07:38:46;6.93;;;1.42;;
33826;SDS011;20128;45.582;5.298;2022-09-09T07:41:15;6.40;;;1.58;;
33826;SDS011;20128;45.582;5.298;2022-09-09T07:43:44;6.30;;;1.48;;
33826;SDS011;20128;45.582;5.298;2022-09-09T07:46:13;6.28;;;1.60;;
33826;SDS011;20128;45.582;5.298;2022-09-09T07:48:46;5.32;;;1.15;;
33826;SDS011;20128;45.582;5.298;2022-09-09T07:51:16;4.03;;;1.10;;
33826;SDS011;20128;45.582;5.298;2022-09-09T07:53:45;4.78;;;1.20;;
33826;SDS011;20128;45.582;5.298;2022-09-09T07:56:15;7.97;;;1.27;;
33826;SDS011;20128;45.582;5.298;2022-09-09T07:58:44;6.45;;;2.30;;
33826;SDS011;20128;45.582;5.298;2022-09-09T08:01:12;7.55;;;1.08;;
33826;SDS011;20128;45.582;5.298;2022-09-09T08:03:43;4.57;;;0.95;;
33826;SDS011;20128;45.582;5.298;2022-09-09T08:06:10;6.03;;;1.20;;
33826;SDS011;20128;45.582;5.298;2022-09-09T08:08:37;6.15;;;1.10;;
33826;SDS011;20128;45.582;5.298;2022-09-09T08:13:37;5.68;;;1.27;;
33826;SDS011;20128;45.582;5.298;2022-09-09T08:16:07;5.93;;;0.93;;
33826;SDS011;20128;45.582;5.298;2022-09-09T08:18:38;5.88;;;1.05;;
33826;SDS011;20128;45.582;5.298;2022-09-09T08:21:12;3.55;;;1.02;;
33826;SDS011;20128;45.582;5.298;2022-09-09T08:23:49;5.53;;;1.10;;
33826;SDS011;20128;45.582;5.298;2022-09-09T08:26:38;4.32;;;0.95;;
33826;SDS011;20128;45.582;5.298;2022-09-09T08:29:05;4.57;;;1.10;;
33826;SDS011;20128;45.582;5.298;2022-09-09T08:31:34;8.20;;;1.08;;
33826;SDS011;20128;45.582;5.298;2022-09-09T08:34:04;9.85;;;1.63;;
33826;SDS011;20128;45.582;5.298;2022-09-09T08:36:31;6.20;;;1.00;;
33826;SDS011;20128;45.582;5.298;2022-09-09T08:38:59;6.85;;;1.63;;
33826;SDS011;20128;45.582;5.298;2022-09-09T08:44:37;4.65;;;1.08;;
33826;SDS011;20128;45.582;5.298;2022-09-09T08:49:46;13.40;;;1.23;;
33826;SDS011;20128;45.582;5.298;2022-09-09T08:52:27;9.70;;;1.05;;
33826;SDS011;20128;45.582;5.298;2022-09-09T08:55:02;6.80;;;1.20;;
33826;SDS011;20128;45.582;5.298;2022-09-09T08:57:50;4.18;;;0.82;;
33826;SDS011;20128;45.582;5.298;2022-09-09T09:00:18;3.92;;;0.90;;
33826;SDS011;20128;45.582;5.298;2022-09-09T09:02:58;4.53;;;1.17;;
33826;SDS011;20128;45.582;5.298;2022-09-09T09:08:17;11.18;;;0.85;;
33826;SDS011;20128;45.582;5.298;2022-09-09T09:10:54;13.35;;;1.90;;
33826;SDS011;20128;45.582;5.298;2022-09-09T09:16:27;5.10;;;0.90;;
33826;SDS011;20128;45.582;5.298;2022-09-09T09:18:58;5.40;;;1.55;;
33826;SDS011;20128;45.582;5.298;2022-09-09T09:24:02;2.05;;;0.50;;
33826;SDS011;20128;45.582;5.298;2022-09-09T09:26:36;3.92;;;0.88;;
33826;SDS011;20128;45.582;5.298;2022-09-09T09:29:13;8.23;;;0.77;;
33826;SDS011;20128;45.582;5.298;2022-09-09T09:31:51;4.30;;;0.60;;
33826;SDS011;20128;45.582;5.298;2022-09-09T09:34:20;2.22;;;0.85;;
33826;SDS011;20128;45.582;5.298;2022-09-09T09:42:07;3.92;;;0.90;;
33826;SDS011;20128;45.582;5.298;2022-09-09T09:44:39;5.25;;;0.57;;
33826;SDS011;20128;45.582;5.298;2022-09-09T09:47:06;4.57;;;1.00;;
33826;SDS011;20128;45.582;5.298;2022-09-09T09:49:32;5.32;;;0.88;;
33826;SDS011;20128;45.582;5.298;2022-09-09T09:52:02;2.45;;;0.60;;
33826;SDS011;20128;45.582;5.298;2022-09-09T09:54:29;4.03;;;0.70;;
33826;SDS011;20128;45.582;5.298;2022-09-09T09:57:12;6.27;;;0.60;;
33826;SDS011;20128;45.582;5.298;2022-09-09T09:59:40;4.05;;;0.60;;
33826;SDS011;20128;45.582;5.298;2022-09-09T10:05:01;4.43;;;0.93;;
33826;SDS011;20128;45.582;5.298;2022-09-09T10:07:37;5.07;;;0.70;;
33826;SDS011;20128;45.582;5.298;2022-09-09T10:10:04;9.43;;;1.27;;
33826;SDS011;20128;45.582;5.298;2022-09-09T10:18:08;4.85;;;0.95;;
33826;SDS011;20128;45.582;5.298;2022-09-09T10:31:27;4.50;;;0.65;;
33826;SDS011;20128;45.582;5.298;2022-09-09T10:36:54;2.22;;;0.52;;
33826;SDS011;20128;45.582;5.298;2022-09-09T10:42:09;4.13;;;0.80;;
33826;SDS011;20128;45.582;5.298;2022-09-09T10:56:07;7.28;;;0.90;;
33826;SDS011;20128;45.582;5.298;2022-09-09T10:58:38;3.70;;;0.85;;
33826;SDS011;20128;45.582;5.298;2022-09-09T11:01:28;3.30;;;0.75;;
33826;SDS011;20128;45.582;5.298;2022-09-09T11:03:57;6.85;;;0.70;;
33826;SDS011;20128;45.582;5.298;2022-09-09T11:06:29;1.92;;;0.70;;
33826;SDS011;20128;45.582;5.298;2022-09-09T11:08:59;5.75;;;0.63;;
33826;SDS011;20128;45.582;5.298;2022-09-09T11:11:42;5.40;;;0.70;;
33826;SDS011;20128;45.582;5.298;2022-09-09T11:14:21;4.03;;;0.73;;
33826;SDS011;20128;45.582;5.298;2022-09-09T11:17:03;3.45;;;0.77;;
33826;SDS011;20128;45.582;5.298;2022-09-09T11:19:39;2.97;;;0.80;;
33826;SDS011;20128;45.582;5.298;2022-09-09T11:22:08;2.15;;;0.60;;
33826;SDS011;20128;45.582;5.298;2022-09-09T11:27:39;2.33;;;0.60;;
33826;SDS011;20128;45.582;5.298;2022-09-09T11:30:22;2.15;;;0.43;;
33826;SDS011;20128;45.582;5.298;2022-09-09T11:33:00;4.28;;;0.73;;
33826;SDS011;20128;45.582;5.298;2022-09-09T11:40:46;4.55;;;0.80;;
33826;SDS011;20128;45.582;5.298;2022-09-09T11:45:58;2.10;;;0.63;;
33826;SDS011;20128;45.582;5.298;2022-09-09T11:51:08;3.28;;;0.70;;
33826;SDS011;20128;45.582;5.298;2022-09-09T11:53:36;2.03;;;0.40;;
33826;SDS011;20128;45.582;5.298;2022-09-09T11:56:45;3.72;;;0.70;;
33826;SDS011;20128;45.582;5.298;2022-09-09T11:59:19;2.17;;;0.60;;
33826;SDS011;20128;45.582;5.298;2022-09-09T12:02:02;2.17;;;0.65;;
33826;SDS011;20128;45.582;5.298;2022-09-09T12:04:53;2.13;;;0.60;;
33826;SDS011;20128;45.582;5.298;2022-09-09T12:10:25;2.25;;;0.60;;
33826;SDS011;20128;45.582;5.298;2022-09-09T12:12:55;1.30;;;0.40;;
33826;SDS011;20128;45.582;5.298;2022-09-09T12:15:32;3.90;;;0.70;;
33826;SDS011;20128;45.582;5.298;2022-09-09T12:17:58;4.00;;;0.77;;
33826;SDS011;20128;45.582;5.298;2022-09-09T12:33:43;3.05;;;0.60;;
33826;SDS011;20128;45.582;5.298;2022-09-09T12:36:33;4.28;;;0.57;;
33826;SDS011;20128;45.582;5.298;2022-09-09T12:38:59;8.45;;;0.52;;
33826;SDS011;20128;45.582;5.298;2022-09-09T12:41:40;3.75;;;1.08;;
33826;SDS011;20128;45.582;5.298;2022-09-09T12:44:08;1.75;;;0.40;;
33826;SDS011;20128;45.582;5.298;2022-09-09T12:46:38;1.95;;;0.65;;
33826;SDS011;20128;45.582;5.298;2022-09-09T12:49:40;3.40;;;0.57;;
33826;SDS011;20128;45.582;5.298;2022-09-09T12:54:30;3.42;;;0.65;;
33826;SDS011;20128;45.582;5.298;2022-09-09T12:56:58;5.97;;;0.50;;
33826;SDS011;20128;45.582;5.298;2022-09-09T12:59:25;2.55;;;0.60;;
33826;SDS011;20128;45.582;5.298;2022-09-09T13:01:58;5.03;;;0.80;;
33826;SDS011;20128;45.582;5.298;2022-09-09T13:04:24;2.63;;;0.75;;
33826;SDS011;20128;45.582;5.298;2022-09-09T13:06:50;4.53;;;0.70;;
33826;SDS011;20128;45.582;5.298;2022-09-09T13:09:20;2.58;;;0.55;;
33826;SDS011;20128;45.582;5.298;2022-09-09T13:11:50;2.08;;;0.57;;
33826;SDS011;20128;45.582;5.298;2022-09-09T13:14:31;3.67;;;0.65;;
33826;SDS011;20128;45.582;5.298;2022-09-09T13:17:02;2.38;;;0.60;;
33826;SDS011;20128;45.582;5.298;2022-09-09T13:19:31;3.53;;;0.60;;
33826;SDS011;20128;45.582;5.298;2022-09-09T13:22:10;2.20;;;0.50;;
33826;SDS011;20128;45.582;5.298;2022-09-09T13:24:44;2.88;;;0.70;;
33826;SDS011;20128;45.582;5.298;2022-09-09T13:33:02;5.50;;;0.82;;
33826;SDS011;20128;45.582;5.298;2022-09-09T13:35:34;3.60;;;0.60;;
33826;SDS011;20128;45.582;5.298;2022-09-09T13:38:09;2.88;;;0.52;;
33826;SDS011;20128;45.582;5.298;2022-09-09T13:40:38;1.38;;;0.40;;
33826;SDS011;20128;45.582;5.298;2022-09-09T13:43:04;4.85;;;0.75;;
33826;SDS011;20128;45.582;5.298;2022-09-09T13:45:30;2.58;;;0.40;;
33826;SDS011;20128;45.582;5.298;2022-09-09T13:47:56;5.63;;;0.40;;
33826;SDS011;20128;45.582;5.298;2022-09-09T13:50:25;3.42;;;0.63;;
33826;SDS011;20128;45.582;5.298;2022-09-09T13:55:26;2.97;;;0.47;;
33826;SDS011;20128;45.582;5.298;2022-09-09T13:57:54;4.35;;;0.65;;
33826;SDS011;20128;45.582;5.298;2022-09-09T14:00:21;3.03;;;0.60;;
33826;SDS011;20128;45.582;5.298;2022-09-09T14:02:49;1.48;;;0.50;;
33826;SDS011;20128;45.582;5.298;2022-09-09T14:05:15;6.32;;;0.65;;
33826;SDS011;20128;45.582;5.298;2022-09-09T14:07:41;2.17;;;0.60;;
33826;SDS011;20128;45.582;5.298;2022-09-09T14:10:08;4.47;;;0.98;;
33826;SDS011;20128;45.582;5.298;2022-09-09T14:12:35;2.75;;;0.40;;
33826;SDS011;20128;45.582;5.298;2022-09-09T14:15:04;2.65;;;0.40;;
33826;SDS011;20128;45.582;5.298;2022-09-09T14:17:32;3.78;;;0.60;;
33826;SDS011;20128;45.582;5.298;2022-09-09T14:20:00;4.60;;;0.88;;
33826;SDS011;20128;45.582;5.298;2022-09-09T14:22:26;3.90;;;0.60;;
33826;SDS011;20128;45.582;5.298;2022-09-09T14:24:53;7.18;;;1.08;;
33826;SDS011;20128;45.582;5.298;2022-09-09T14:27:19;2.67;;;0.73;;
33826;SDS011;20128;45.582;5.298;2022-09-09T14:29:44;5.60;;;0.60;;
33826;SDS011;20128;45.582;5.298;2022-09-09T14:32:10;8.32;;;1.00;;
33826;SDS011;20128;45.582;5.298;2022-09-09T14:34:36;2.03;;;0.40;;
33826;SDS011;20128;45.582;5.298;2022-09-09T14:37:03;5.57;;;0.60;;
33826;SDS011;20128;45.582;5.298;2022-09-09T14:39:28;1.38;;;0.43;;
33826;SDS011;20128;45.582;5.298;2022-09-09T14:41:54;2.83;;;0.55;;
33826;SDS011;20128;45.582;5.298;2022-09-09T14:44:20;2.08;;;0.60;;
33826;SDS011;20128;45.582;5.298;2022-09-09T14:46:47;2.30;;;0.52;;
33826;SDS011;20128;45.582;5.298;2022-09-09T14:49:15;4.20;;;0.75;;
33826;SDS011;20128;45.582;5.298;2022-09-09T14:51:41;4.68;;;0.60;;
33826;SDS011;20128;45.582;5.298;2022-09-09T14:54:06;5.20;;;0.60;;
33826;SDS011;20128;45.582;5.298;2022-09-09T14:56:32;5.35;;;0.95;;
33826;SDS011;20128;45.582;5.298;2022-09-09T14:59:00;4.40;;;0.73;;
33826;SDS011;20128;45.582;5.298;2022-09-09T15:01:26;3.72;;;0.40;;
33826;SDS011;20128;45.582;5.298;2022-09-09T15:03:54;1.70;;;0.70;;
33826;SDS011;20128;45.582;5.298;2022-09-09T15:06:22;2.05;;;0.50;;
33826;SDS011;20128;45.582;5.298;2022-09-09T15:08:49;4.10;;;0.77;;
33826;SDS011;20128;45.582;5.298;2022-09-09T15:11:17;8.05;;;0.80;;
33826;SDS011;20128;45.582;5.298;2022-09-09T15:13:43;4.43;;;0.73;;
33826;SDS011;20128;45.582;5.298;2022-09-09T15:16:10;5.15;;;1.15;;
33826;SDS011;20128;45.582;5.298;2022-09-09T15:18:40;4.43;;;0.70;;
33826;SDS011;20128;45.582;5.298;2022-09-09T15:21:11;2.55;;;0.80;;
33826;SDS011;20128;45.582;5.298;2022-09-09T15:23:42;1.83;;;0.60;;
33826;SDS011;20128;45.582;5.298;2022-09-09T15:26:08;2.72;;;0.50;;
33826;SDS011;20128;45.582;5.298;2022-09-09T15:28:35;3.53;;;0.80;;
33826;SDS011;20128;45.582;5.298;2022-09-09T15:33:34;2.42;;;0.68;;
33826;SDS011;20128;45.582;5.298;2022-09-09T15:36:12;2.63;;;0.80;;
33826;SDS011;20128;45.582;5.298;2022-09-09T15:38:49;3.63;;;0.80;;
33826;SDS011;20128;45.582;5.298;2022-09-09T15:41:16;2.97;;;0.70;;
33826;SDS011;20128;45.582;5.298;2022-09-09T15:43:46;6.15;;;1.02;;
33826;SDS011;20128;45.582;5.298;2022-09-09T15:48:42;7.47;;;0.88;;
33826;SDS011;20128;45.582;5.298;2022-09-09T15:51:09;5.07;;;0.52;;
33826;SDS011;20128;45.582;5.298;2022-09-09T15:53:36;2.75;;;0.40;;
33826;SDS011;20128;45.582;5.298;2022-09-09T15:56:04;3.22;;;0.80;;
33826;SDS011;20128;45.582;5.298;2022-09-09T15:58:31;3.83;;;0.93;;
33826;SDS011;20128;45.582;5.298;2022-09-09T16:01:08;3.25;;;0.70;;
33826;SDS011;20128;45.582;5.298;2022-09-09T16:03:36;1.83;;;0.40;;
33826;SDS011;20128;45.582;5.298;2022-09-09T16:06:04;2.38;;;0.63;;
33826;SDS011;20128;45.582;5.298;2022-09-09T16:08:34;5.20;;;1.25;;
33826;SDS011;20128;45.582;5.298;2022-09-09T16:11:08;4.60;;;0.90;;
33826;SDS011;20128;45.582;5.298;2022-09-09T16:13:40;7.45;;;1.35;;
33826;SDS011;20128;45.582;5.298;2022-09-09T16:16:10;2.22;;;0.55;;
33826;SDS011;20128;45.582;5.298;2022-09-09T16:18:45;3.90;;;0.88;;
33826;SDS011;20128;45.582;5.298;2022-09-09T16:21:16;4.93;;;0.52;;
33826;SDS011;20128;45.582;5.298;2022-09-09T16:23:44;2.88;;;0.63;;
33826;SDS011;20128;45.582;5.298;2022-09-09T16:26:11;5.43;;;0.90;;
33826;SDS011;20128;45.582;5.298;2022-09-09T16:28:38;2.97;;;0.75;;
33826;SDS011;20128;45.582;5.298;2022-09-09T16:31:07;3.92;;;0.70;;
33826;SDS011;20128;45.582;5.298;2022-09-09T16:33:35;7.40;;;0.80;;
33826;SDS011;20128;45.582;5.298;2022-09-09T16:36:05;4.05;;;0.82;;
33826;SDS011;20128;45.582;5.298;2022-09-09T16:38:35;5.82;;;0.55;;
33826;SDS011;20128;45.582;5.298;2022-09-09T16:41:02;4.35;;;0.55;;
33826;SDS011;20128;45.582;5.298;2022-09-09T16:43:33;4.22;;;0.80;;
33826;SDS011;20128;45.582;5.298;2022-09-09T16:46:00;4.03;;;1.00;;
33826;SDS011;20128;45.582;5.298;2022-09-09T16:48:30;1.48;;;0.80;;
33826;SDS011;20128;45.582;5.298;2022-09-09T16:51:05;3.25;;;0.90;;
33826;SDS011;20128;45.582;5.298;2022-09-09T16:53:33;2.85;;;0.98;;
33826;SDS011;20128;45.582;5.298;2022-09-09T16:56:05;3.13;;;0.82;;
33826;SDS011;20128;45.582;5.298;2022-09-09T16:58:32;9.23;;;1.48;;
33826;SDS011;20128;45.582;5.298;2022-09-09T17:00:58;5.95;;;0.95;;
33826;SDS011;20128;45.582;5.298;2022-09-09T17:03:25;2.25;;;0.70;;
33826;SDS011;20128;45.582;5.298;2022-09-09T17:05:51;4.25;;;0.70;;
33826;SDS011;20128;45.582;5.298;2022-09-09T17:08:16;3.90;;;0.93;;
33826;SDS011;20128;45.582;5.298;2022-09-09T17:10:42;5.75;;;1.02;;
33826;SDS011;20128;45.582;5.298;2022-09-09T17:13:08;3.33;;;0.93;;
33826;SDS011;20128;45.582;5.298;2022-09-09T17:15:38;3.60;;;1.00;;
33826;SDS011;20128;45.582;5.298;2022-09-09T17:18:08;2.33;;;0.50;;
33826;SDS011;20128;45.582;5.298;2022-09-09T17:20:35;3.22;;;1.00;;
33826;SDS011;20128;45.582;5.298;2022-09-09T17:23:02;5.18;;;1.13;;
33826;SDS011;20128;45.582;5.298;2022-09-09T17:25:27;3.75;;;0.73;;
33826;SDS011;20128;45.582;5.298;2022-09-09T17:27:53;3.38;;;0.80;;
33826;SDS011;20128;45.582;5.298;2022-09-09T17:30:19;5.25;;;0.88;;
33826;SDS011;20128;45.582;5.298;2022-09-09T17:32:44;4.05;;;0.82;;
33826;SDS011;20128;45.582;5.298;2022-09-09T17:35:11;3.10;;;0.63;;
33826;SDS011;20128;45.582;5.298;2022-09-09T17:37:37;4.65;;;0.88;;
33826;SDS011;20128;45.582;5.298;2022-09-09T17:40:02;3.28;;;0.70;;
33826;SDS011;20128;45.582;5.298;2022-09-09T17:42:29;3.55;;;1.10;;
33826;SDS011;20128;45.582;5.298;2022-09-09T17:44:54;4.57;;;1.20;;